Time;durP1;ratioP1;P1;durP2;ratioP2;P2;SDS_P1;SDS_P2;PMS_P1;PMS_P2;Temp;Humidity;BMP_temperature;BMP_pressure;BME280_temperature;BME280_humidity;BME280_pressure;Samples;Min_cycle;Max_cycle;Signal;HPM_P1;HPM_P2
2022/11/10 00:00:54;;;;;;;60.53;37.00;;;13.00;99.90;;;;;;5096988;28;20456;-73
2022/11/10 00:03:20;;;;;;;61.47;37.23;;;13.00;99.90;;;;;;5095468;28;20318;-73
2022/11/10 00:05:46;;;;;;;57.50;36.90;;;13.00;99.90;;;;;;5095501;28;20341;-73
2022/11/10 00:08:11;;;;;;;68.97;39.27;;;13.00;99.90;;;;;;5096623;28;20529;-73
2022/11/10 00:10:56;;;;;;;62.03;37.07;;;13.00;99.90;;;;;;5096686;28;20196;-73
2022/11/10 00:13:29;;;;;;;62.07;36.67;;;13.00;99.90;;;;;;5095298;28;20227;-74
2022/11/10 00:18:41;;;;;;;62.37;38.53;;;13.00;99.90;;;;;;5096650;28;20488;-73
2022/11/10 00:21:08;;;;;;;62.73;36.97;;;12.90;99.90;;;;;;5096809;28;20469;-74
2022/11/10 00:23:34;;;;;;;62.50;37.13;;;12.90;99.90;;;;;;5097420;28;20188;-73
2022/11/10 00:26:00;;;;;;;61.87;38.17;;;12.90;99.90;;;;;;5098648;28;20439;-73
2022/11/10 00:28:28;;;;;;;65.30;37.90;;;12.90;99.90;;;;;;5116716;28;20179;-74
2022/11/10 00:30:53;;;;;;;60.07;36.57;;;12.90;99.90;;;;;;5098094;28;20694;-74
2022/11/10 00:33:19;;;;;;;61.67;37.37;;;12.90;99.90;;;;;;5116627;28;20404;-73
2022/11/10 00:35:45;;;;;;;64.80;37.93;;;12.90;99.90;;;;;;5098261;28;20199;-74
2022/11/10 00:38:10;;;;;;;65.50;37.67;;;12.90;99.90;;;;;;5097284;28;20176;-73
2022/11/10 00:40:36;;;;;;;68.70;36.90;;;13.00;99.90;;;;;;5098155;28;20200;-73
2022/11/10 00:43:02;;;;;;;68.07;38.60;;;13.00;99.90;;;;;;5116417;28;20184;-74
2022/11/10 00:45:28;;;;;;;71.60;39.27;;;13.00;99.90;;;;;;5098087;28;20222;-74
2022/11/10 00:48:12;;;;;;;69.20;39.40;;;13.00;99.90;;;;;;5116375;28;20570;-73
2022/11/10 00:50:38;;;;;;;76.73;40.23;;;13.00;99.90;;;;;;5097986;28;20686;-73
2022/11/10 00:53:03;;;;;;;65.00;36.40;;;13.00;99.90;;;;;;5098257;28;20412;-73
2022/11/10 00:55:29;;;;;;;58.47;34.93;;;13.00;99.90;;;;;;5097802;28;20959;-74
2022/11/10 00:57:55;;;;;;;67.43;35.87;;;13.00;99.90;;;;;;5097855;28;20220;-73
2022/11/10 01:00:21;;;;;;;66.57;37.77;;;13.00;99.90;;;;;;5116103;28;20585;-74
2022/11/10 01:02:46;;;;;;;77.40;37.77;;;13.00;99.90;;;;;;5116349;28;20532;-73
2022/11/10 01:05:12;;;;;;;58.57;35.83;;;13.00;99.90;;;;;;5097661;28;20964;-74
2022/11/10 01:07:38;;;;;;;59.43;35.90;;;13.00;99.90;;;;;;5115932;28;20525;-73
2022/11/10 01:10:04;;;;;;;58.60;35.17;;;13.00;99.90;;;;;;5115843;28;20196;-73
2022/11/10 01:12:30;;;;;;;62.70;36.43;;;13.00;99.90;;;;;;5115847;28;20243;-73
2022/11/10 01:14:56;;;;;;;58.50;34.70;;;13.00;99.90;;;;;;5097317;28;20460;-74
2022/11/10 01:17:22;;;;;;;56.03;33.27;;;13.00;99.90;;;;;;5097406;28;21020;-73
2022/11/10 01:19:47;;;;;;;60.20;34.10;;;13.00;99.90;;;;;;5097229;28;20432;-74
2022/11/10 01:22:13;;;;;;;58.50;33.40;;;13.00;99.90;;;;;;5115664;28;20172;-73
2022/11/10 01:24:39;;;;;;;59.83;33.93;;;13.00;99.90;;;;;;5096991;28;20223;-73
2022/11/10 01:27:04;;;;;;;58.40;33.40;;;13.00;99.90;;;;;;5115702;28;20180;-73
2022/11/10 01:29:30;;;;;;;58.43;32.50;;;13.00;99.90;;;;;;5115475;28;20191;-74
2022/11/10 01:31:56;;;;;;;59.30;35.63;;;13.00;99.90;;;;;;5115857;28;20204;-74
2022/11/10 01:34:21;;;;;;;59.77;33.60;;;13.00;99.90;;;;;;5115289;28;20270;-73
2022/11/10 01:36:47;;;;;;;55.80;31.20;;;13.00;99.90;;;;;;5115808;28;20267;-73
2022/11/10 01:39:12;;;;;;;58.70;33.07;;;13.00;99.90;;;;;;5096925;28;20186;-74
2022/11/10 01:41:38;;;;;;;59.20;32.90;;;13.00;99.90;;;;;;5115632;28;20199;-73
2022/11/10 01:44:18;;;;;;;57.70;30.90;;;13.00;99.90;;;;;;5115166;28;20270;-73
2022/11/10 01:46:44;;;;;;;55.93;32.17;;;13.00;99.90;;;;;;5115525;28;20578;-74
2022/11/10 01:49:12;;;;;;;56.00;31.70;;;13.00;99.90;;;;;;5096646;28;20420;-73
2022/11/10 01:51:48;;;;;;;53.10;31.90;;;13.00;99.90;;;;;;5115442;28;20233;-73
2022/11/10 01:54:19;;;;;;;56.53;31.40;;;13.00;99.90;;;;;;5114937;28;20892;-73
2022/11/10 01:56:50;;;;;;;57.73;32.20;;;13.00;99.90;;;;;;5115152;28;20935;-74
2022/11/10 01:59:21;;;;;;;61.13;32.33;;;13.00;99.90;;;;;;5114935;28;20395;-74
2022/11/10 02:01:49;;;;;;;50.37;31.60;;;13.00;99.90;;;;;;5096923;28;20921;-74
2022/11/10 02:04:17;;;;;;;55.70;31.00;;;12.90;99.90;;;;;;5096495;28;20477;-74
2022/11/10 02:06:45;;;;;;;54.87;29.57;;;12.90;99.90;;;;;;5115224;28;20486;-73
2022/11/10 02:09:11;;;;;;;52.03;30.83;;;12.90;99.90;;;;;;5096462;28;20908;-73
2022/11/10 02:11:38;;;;;;;53.80;29.90;;;12.90;99.90;;;;;;5114546;28;20478;-74
2022/11/10 02:14:04;;;;;;;54.93;33.00;;;12.90;99.90;;;;;;5096335;28;20172;-74
2022/11/10 02:16:31;;;;;;;54.87;30.70;;;12.90;99.90;;;;;;5114838;28;20423;-72
2022/11/10 02:18:57;;;;;;;52.47;29.63;;;12.90;99.90;;;;;;5096381;28;20469;-73
2022/11/10 02:21:22;;;;;;;52.63;29.30;;;12.90;99.90;;;;;;5096301;28;20972;-73
2022/11/10 02:23:51;;;;;;;50.57;28.90;;;12.90;99.90;;;;;;5114450;28;20645;-73
2022/11/10 02:26:22;;;;;;;55.13;30.73;;;12.80;99.90;;;;;;5114831;28;20203;-74
2022/11/10 02:28:48;;;;;;;53.97;29.47;;;12.80;99.90;;;;;;5114475;28;20388;-73
2022/11/10 02:31:14;;;;;;;51.07;28.37;;;12.80;99.90;;;;;;5096217;28;20471;-73
2022/11/10 02:33:40;;;;;;;51.60;30.00;;;12.80;99.90;;;;;;5096196;28;20525;-74
2022/11/10 02:36:06;;;;;;;58.50;32.90;;;12.80;99.90;;;;;;5114550;28;20537;-74
2022/11/10 02:38:31;;;;;;;53.47;30.07;;;12.80;99.90;;;;;;5114314;28;20195;-73
2022/11/10 02:40:57;;;;;;;57.30;30.77;;;12.70;99.90;;;;;;5096056;28;20447;-73
2022/11/10 02:43:23;;;;;;;56.97;31.83;;;12.70;99.90;;;;;;5095966;28;20453;-74
2022/11/10 02:45:49;;;;;;;51.53;31.60;;;12.70;99.90;;;;;;5095901;28;20207;-73
2022/11/10 02:48:15;;;;;;;52.90;31.33;;;12.70;99.90;;;;;;5095953;28;20168;-73
2022/11/10 02:50:41;;;;;;;53.27;28.90;;;12.70;99.90;;;;;;5114238;28;20191;-72
2022/11/10 02:53:07;;;;;;;53.83;29.20;;;12.70;99.90;;;;;;5114184;28;20815;-74
2022/11/10 02:55:33;;;;;;;48.23;29.40;;;12.70;99.90;;;;;;5114242;28;20947;-73
2022/11/10 02:57:59;;;;;;;54.30;28.63;;;12.70;99.90;;;;;;5114144;28;20408;-73
2022/11/10 03:00:25;;;;;;;51.30;29.30;;;12.60;99.90;;;;;;5095867;28;20200;-74
2022/11/10 03:03:01;;;;;;;51.17;29.10;;;12.60;99.90;;;;;;5099712;28;20180;-73
2022/11/10 03:05:28;;;;;;;53.37;30.10;;;12.60;99.90;;;;;;5118340;28;20545;-73
2022/11/10 03:07:55;;;;;;;51.87;29.90;;;12.60;99.90;;;;;;5118267;28;20403;-73
2022/11/10 03:10:22;;;;;;;61.53;32.27;;;12.60;99.90;;;;;;5099785;28;20451;-74
2022/11/10 03:12:48;;;;;;;50.37;28.27;;;12.60;99.90;;;;;;5099830;28;21042;-73
2022/11/10 03:15:14;;;;;;;50.17;29.17;;;12.60;99.90;;;;;;5099689;28;20451;-74
2022/11/10 03:17:40;;;;;;;56.70;30.57;;;12.60;99.90;;;;;;5118055;28;20254;-72
2022/11/10 03:20:06;;;;;;;56.07;29.87;;;12.60;99.90;;;;;;5099833;28;20444;-72
2022/11/10 03:22:32;;;;;;;56.13;30.63;;;12.60;99.90;;;;;;5118090;28;20916;-73
2022/11/10 03:24:57;;;;;;;55.63;30.17;;;12.60;99.90;;;;;;5099562;28;20480;-73
2022/11/10 03:27:23;;;;;;;55.07;31.00;;;12.60;99.90;;;;;;5117886;28;20168;-72
2022/11/10 03:29:49;;;;;;;55.40;31.37;;;12.60;99.90;;;;;;5117706;28;20517;-74
2022/11/10 03:32:14;;;;;;;53.73;30.37;;;12.60;99.90;;;;;;5099516;28;20209;-74
2022/11/10 03:34:40;;;;;;;51.00;29.77;;;12.60;99.90;;;;;;5099296;28;20195;-73
2022/11/10 03:37:06;;;;;;;55.37;31.40;;;12.60;99.90;;;;;;5099677;28;20183;-73
2022/11/10 03:39:31;;;;;;;49.10;30.57;;;12.60;99.90;;;;;;5117629;28;20195;-74
2022/11/10 03:41:57;;;;;;;56.03;30.80;;;12.60;99.90;;;;;;5118152;28;20183;-74
2022/11/10 03:44:22;;;;;;;54.80;30.03;;;12.60;99.90;;;;;;5117507;28;20192;-73
2022/11/10 03:46:48;;;;;;;58.87;30.43;;;12.60;99.90;;;;;;5117981;28;20180;-73
2022/11/10 03:49:14;;;;;;;51.90;32.20;;;12.60;99.90;;;;;;5099202;28;20167;-73
2022/11/10 03:51:39;;;;;;;57.17;30.73;;;12.60;99.90;;;;;;5117761;28;20770;-74
2022/11/10 03:54:05;;;;;;;53.27;31.07;;;12.60;99.90;;;;;;5117420;28;20659;-74
2022/11/10 03:56:31;;;;;;;56.23;31.33;;;12.70;99.90;;;;;;5098958;28;20537;-73
2022/11/10 03:58:56;;;;;;;60.83;31.10;;;12.60;99.90;;;;;;5117304;28;20176;-74
2022/11/10 04:01:22;;;;;;;53.33;30.30;;;12.60;99.90;;;;;;5098993;28;20207;-73
2022/11/10 04:03:48;;;;;;;60.03;32.73;;;12.60;99.90;;;;;;5117110;28;20187;-74
2022/11/10 04:08:58;;;;;;;53.67;30.53;;;12.60;99.90;;;;;;5117562;28;20445;-73
2022/11/10 04:16:56;;;;;;;55.43;30.87;;;12.70;99.90;;;;;;5085234;28;20460;-73
2022/11/10 04:19:22;;;;;;;59.47;31.80;;;12.70;99.90;;;;;;5098513;28;20455;-74
2022/11/10 04:21:47;;;;;;;53.60;31.83;;;12.70;99.90;;;;;;5117332;28;20420;-73
2022/11/10 04:24:13;;;;;;;49.00;30.23;;;12.70;99.90;;;;;;5098218;28;20483;-73
2022/11/10 04:26:41;;;;;;;54.90;31.57;;;12.70;99.90;;;;;;5098703;28;20176;-73
2022/11/10 04:29:10;;;;;;;51.77;29.50;;;12.80;99.90;;;;;;5098423;28;20540;-74
2022/11/10 04:31:39;;;;;;;53.17;31.20;;;12.80;99.90;;;;;;5116484;28;20467;-74
2022/11/10 04:34:06;;;;;;;52.07;31.77;;;12.80;99.90;;;;;;5098243;28;20408;-73
2022/11/10 04:36:34;;;;;;;50.93;32.10;;;12.80;99.90;;;;;;5116941;28;20780;-74
2022/11/10 04:39:00;;;;;;;54.03;31.57;;;12.80;99.90;;;;;;5116521;28;20408;-73
2022/11/10 04:41:28;;;;;;;61.70;33.47;;;12.80;99.90;;;;;;5098360;28;20935;-73
2022/11/10 04:44:02;;;;;;;56.87;31.47;;;12.80;99.90;;;;;;5097946;28;20412;-75
2022/11/10 04:46:37;;;;;;;60.00;31.80;;;12.80;99.90;;;;;;5116822;28;20515;-72
2022/11/10 04:49:05;;;;;;;58.00;31.10;;;12.80;99.90;;;;;;5098389;28;20457;-73
2022/11/10 04:51:33;;;;;;;52.40;29.90;;;12.80;99.90;;;;;;5098596;28;20471;-73
2022/11/10 04:53:59;;;;;;;59.90;33.80;;;12.80;99.90;;;;;;5115786;28;20403;-74
2022/11/10 04:56:26;;;;;;;60.20;31.33;;;12.80;99.90;;;;;;5098095;28;20434;-74
2022/11/10 04:58:53;;;;;;;56.10;32.70;;;12.90;99.90;;;;;;5116751;28;20440;-74
2022/11/10 05:01:22;;;;;;;55.53;32.17;;;12.90;99.90;;;;;;5097398;28;20448;-73
2022/11/10 05:03:49;;;;;;;60.50;33.73;;;12.90;99.90;;;;;;5096056;28;20419;-75
2022/11/10 05:06:15;;;;;;;56.83;31.40;;;12.90;99.90;;;;;;5109817;28;20440;-73
2022/11/10 05:08:41;;;;;;;52.90;31.10;;;12.90;99.90;;;;;;5097520;28;20416;-73
2022/11/10 05:11:07;;;;;;;54.30;31.40;;;12.90;99.90;;;;;;5097743;28;20472;-73
2022/11/10 05:13:33;;;;;;;61.30;31.73;;;12.90;99.90;;;;;;5117414;27;20515;-72
2022/11/10 05:15:58;;;;;;;59.37;34.30;;;12.90;99.90;;;;;;5115459;28;20200;-73
2022/11/10 05:18:24;;;;;;;51.40;31.50;;;12.90;99.90;;;;;;5096924;28;20174;-73
2022/11/10 05:20:52;;;;;;;58.47;34.30;;;12.90;99.90;;;;;;5115248;28;20203;-74
2022/11/10 05:23:36;;;;;;;52.53;33.50;;;12.90;99.90;;;;;;5114688;28;20491;-73
2022/11/10 05:26:06;;;;;;;54.17;31.87;;;12.90;99.90;;;;;;5114019;27;20467;-73
2022/11/10 05:28:32;;;;;;;63.43;33.87;;;13.00;99.90;;;;;;5112184;28;20483;-73
2022/11/10 05:30:57;;;;;;;60.07;34.57;;;13.00;99.90;;;;;;5096683;28;20475;-73
2022/11/10 05:33:23;;;;;;;59.03;33.23;;;13.00;99.90;;;;;;5106202;28;20172;-73
2022/11/10 05:35:50;;;;;;;55.73;32.27;;;13.00;99.90;;;;;;5094140;28;20195;-73
2022/11/10 05:38:16;;;;;;;55.47;32.00;;;13.00;99.90;;;;;;5094003;28;20181;-72
2022/11/10 05:40:42;;;;;;;60.67;33.50;;;13.00;99.90;;;;;;5099644;28;20457;-74
2022/11/10 05:43:08;;;;;;;55.60;32.93;;;13.00;99.90;;;;;;5087338;28;20432;-73
2022/11/10 05:45:33;;;;;;;63.53;32.87;;;13.00;99.90;;;;;;5115235;28;20455;-74
2022/11/10 05:47:59;;;;;;;53.90;32.50;;;13.00;99.90;;;;;;5114343;28;20416;-73
2022/11/10 05:50:25;;;;;;;56.17;31.67;;;13.00;99.90;;;;;;5109597;28;20211;-73
2022/11/10 05:52:53;;;;;;;55.97;34.50;;;13.00;99.90;;;;;;5099364;28;20204;-73
2022/11/10 05:55:22;;;;;;;59.37;32.03;;;13.00;99.90;;;;;;5103610;28;20475;-74
2022/11/10 05:57:50;;;;;;;56.70;31.00;;;13.00;99.90;;;;;;5114271;28;20416;-73
2022/11/10 06:00:17;;;;;;;65.07;35.43;;;13.00;99.90;;;;;;5095666;28;20971;-73
2022/11/10 06:02:44;;;;;;;61.47;33.07;;;13.00;99.90;;;;;;5094374;28;20483;-74
2022/11/10 06:05:10;;;;;;;63.70;33.63;;;13.00;99.90;;;;;;5112140;28;20456;-74
2022/11/10 06:07:37;;;;;;;55.20;33.03;;;13.00;99.90;;;;;;5112538;28;20396;-72
2022/11/10 06:10:04;;;;;;;53.43;32.80;;;13.00;99.90;;;;;;5112053;28;20496;-73
2022/11/10 06:12:29;;;;;;;57.97;33.93;;;13.00;99.90;;;;;;5111049;28;20463;-73
2022/11/10 06:14:57;;;;;;;61.50;34.80;;;13.00;99.90;;;;;;5094480;28;20432;-74
2022/11/10 06:17:26;;;;;;;68.13;35.57;;;13.00;99.90;;;;;;5095952;28;20209;-73
2022/11/10 06:19:52;;;;;;;53.97;32.60;;;13.00;99.90;;;;;;5095380;28;20432;-73
2022/11/10 06:22:18;;;;;;;62.77;33.40;;;13.00;99.90;;;;;;5114191;28;20835;-73
2022/11/10 06:24:43;;;;;;;54.67;32.73;;;13.00;99.90;;;;;;5108838;28;20684;-74
2022/11/10 06:27:09;;;;;;;80.10;44.67;;;13.00;99.90;;;;;;5086842;28;20925;-73
2022/11/10 06:29:34;;;;;;;59.10;36.40;;;13.00;99.90;;;;;;5093674;28;20252;-73
2022/11/10 06:32:00;;;;;;;63.03;38.67;;;13.00;99.90;;;;;;5086132;28;20319;-73
2022/11/10 06:34:26;;;;;;;54.80;34.60;;;13.00;99.90;;;;;;5087642;28;20671;-73
2022/11/10 06:36:52;;;;;;;70.83;38.03;;;13.00;99.90;;;;;;5090373;28;20176;-73
2022/11/10 06:39:17;;;;;;;66.57;37.33;;;13.00;99.90;;;;;;5091170;28;20416;-73
2022/11/10 06:41:43;;;;;;;97.47;52.73;;;13.00;99.90;;;;;;5088828;28;20305;-73
2022/11/10 06:44:10;;;;;;;132.03;92.10;;;13.00;99.90;;;;;;5081894;28;20192;-73
2022/11/10 06:46:36;;;;;;;194.23;122.77;;;13.00;99.90;;;;;;5083877;28;20176;-74
2022/11/10 06:49:02;;;;;;;111.13;61.43;;;13.00;99.90;;;;;;5087308;28;20499;-73
2022/11/10 06:51:29;;;;;;;112.20;67.93;;;13.10;99.90;;;;;;5090994;28;20606;-73
2022/11/10 06:53:55;;;;;;;130.77;72.83;;;13.10;99.90;;;;;;5089457;28;20413;-72
2022/11/10 06:56:20;;;;;;;73.97;45.30;;;13.10;99.90;;;;;;5088221;28;20457;-73
2022/11/10 06:58:46;;;;;;;59.10;36.60;;;13.10;99.90;;;;;;5087658;28;20265;-72
2022/11/10 07:01:12;;;;;;;63.90;38.60;;;13.20;99.90;;;;;;5087796;28;20338;-73
2022/11/10 07:03:38;;;;;;;61.83;36.47;;;13.20;99.90;;;;;;5087902;28;20205;-72
2022/11/10 07:06:04;;;;;;;75.23;40.47;;;13.20;99.90;;;;;;5088855;28;20196;-71
2022/11/10 07:08:30;;;;;;;73.33;41.00;;;13.30;99.90;;;;;;5089818;28;20409;-72
2022/11/10 07:10:55;;;;;;;63.30;38.60;;;13.30;99.90;;;;;;5089402;28;20445;-73
2022/11/10 07:13:22;;;;;;;64.80;39.00;;;13.30;99.90;;;;;;5091429;28;20184;-73
2022/11/10 07:15:48;;;;;;;63.23;38.23;;;13.30;99.90;;;;;;5091947;28;20211;-73
2022/11/10 07:18:14;;;;;;;61.57;37.43;;;13.40;99.90;;;;;;5090413;28;20409;-73
2022/11/10 07:20:39;;;;;;;61.80;38.60;;;13.40;99.90;;;;;;5088968;28;20200;-73
2022/11/10 07:23:07;;;;;;;64.53;36.37;;;13.40;99.90;;;;;;5089792;28;20179;-72
2022/11/10 07:25:35;;;;;;;59.47;36.80;;;13.40;99.90;;;;;;5090237;28;20689;-74
2022/11/10 07:28:05;;;;;;;60.13;37.17;;;13.50;99.90;;;;;;5090091;28;20416;-74
2022/11/10 07:30:34;;;;;;;69.97;41.90;;;13.50;99.90;;;;;;5089934;28;20453;-73
2022/11/10 07:33:02;;;;;;;63.80;38.50;;;13.50;99.90;;;;;;5088689;28;20545;-73
2022/11/10 07:35:28;;;;;;;63.87;40.20;;;13.60;99.90;;;;;;5088504;28;20880;-74
2022/11/10 07:38:00;;;;;;;59.10;37.90;;;13.60;99.90;;;;;;5089894;28;20424;-72
2022/11/10 07:40:26;;;;;;;63.30;40.50;;;13.60;99.90;;;;;;5089204;28;20467;-74
2022/11/10 07:42:51;;;;;;;72.30;42.17;;;13.70;99.90;;;;;;5085022;28;20944;-73
2022/11/10 07:45:17;;;;;;;67.87;41.47;;;13.70;99.90;;;;;;5072935;28;20454;-73
2022/11/10 07:47:43;;;;;;;62.30;39.93;;;13.70;99.90;;;;;;5085149;28;20215;-74
2022/11/10 07:50:09;;;;;;;66.50;41.87;;;13.80;99.90;;;;;;5094720;28;20200;-73
2022/11/10 07:52:36;;;;;;;69.17;41.83;;;13.80;99.90;;;;;;5092932;28;20206;-73
2022/11/10 07:55:03;;;;;;;60.37;39.67;;;13.80;99.90;;;;;;5092805;28;20464;-72
2022/11/10 07:57:29;;;;;;;62.67;40.00;;;13.80;99.90;;;;;;5093090;28;20917;-74
2022/11/10 07:59:54;;;;;;;62.43;40.80;;;13.80;99.90;;;;;;5094038;28;20453;-73
2022/11/10 08:02:20;;;;;;;69.20;42.87;;;13.90;99.90;;;;;;5093463;28;20181;-74
2022/11/10 08:04:46;;;;;;;65.07;42.63;;;13.90;99.90;;;;;;5092188;28;20203;-74
2022/11/10 08:07:11;;;;;;;64.53;42.00;;;13.90;99.90;;;;;;5090367;28;20212;-74
2022/11/10 08:09:37;;;;;;;63.80;42.67;;;13.90;99.90;;;;;;5090598;28;20464;-74
2022/11/10 08:12:03;;;;;;;67.73;42.43;;;13.90;99.90;;;;;;5089962;28;20224;-73
2022/11/10 08:14:28;;;;;;;69.80;43.93;;;13.90;99.90;;;;;;5084041;28;20193;-72
2022/11/10 08:16:54;;;;;;;66.17;43.80;;;13.80;99.90;;;;;;5089777;28;20458;-74
2022/11/10 08:19:20;;;;;;;73.10;45.80;;;13.80;99.90;;;;;;5088580;28;20196;-74
2022/11/10 08:21:45;;;;;;;75.30;46.60;;;13.80;99.90;;;;;;5091764;28;20176;-74
2022/11/10 08:24:11;;;;;;;72.37;45.10;;;13.80;99.90;;;;;;5086118;28;20269;-73
2022/11/10 08:26:37;;;;;;;68.63;41.97;;;13.80;99.90;;;;;;5094643;28;20215;-74
2022/11/10 08:29:02;;;;;;;66.87;40.73;;;13.80;99.90;;;;;;5106562;28;20435;-74
2022/11/10 08:31:28;;;;;;;65.60;41.07;;;13.80;99.90;;;;;;5095001;28;20226;-73
2022/11/10 08:33:54;;;;;;;71.33;42.27;;;13.90;99.90;;;;;;5115722;28;20175;-73
2022/11/10 08:36:19;;;;;;;64.13;40.00;;;13.90;99.90;;;;;;5095387;28;20258;-73
2022/11/10 08:38:45;;;;;;;63.07;41.10;;;13.90;99.90;;;;;;5103362;28;20176;-73
2022/11/10 08:41:11;;;;;;;62.03;39.60;;;14.00;99.90;;;;;;5094074;28;20727;-75
2022/11/10 08:43:36;;;;;;;65.60;40.57;;;14.10;99.90;;;;;;5110647;27;20184;-73
2022/11/10 08:46:02;;;;;;;57.97;36.80;;;14.20;99.90;;;;;;5133173;27;20237;-73
2022/11/10 08:48:28;;;;;;;61.70;38.00;;;14.30;99.90;;;;;;5093835;28;20188;-73
2022/11/10 08:50:53;;;;;;;66.13;37.77;;;14.40;99.90;;;;;;5094260;28;20208;-73
2022/11/10 08:53:22;;;;;;;53.90;35.90;;;14.50;99.90;;;;;;5111692;28;20416;-75
2022/11/10 08:55:49;;;;;;;56.73;36.10;;;14.60;99.90;;;;;;5087480;28;20552;-74
2022/11/10 08:58:22;;;;;;;63.07;35.90;;;14.70;99.90;;;;;;5087914;28;20427;-74
2022/11/10 09:00:50;;;;;;;60.63;36.90;;;14.90;99.90;;;;;;5106057;28;20445;-74
2022/11/10 09:03:21;;;;;;;53.40;31.97;;;15.00;99.90;;;;;;5098152;28;20436;-74
2022/11/10 09:05:47;;;;;;;43.17;25.37;;;15.10;99.90;;;;;;5096699;28;20456;-73
2022/11/10 09:08:14;;;;;;;45.60;26.63;;;15.20;99.90;;;;;;5096371;28;20459;-74
2022/11/10 09:10:42;;;;;;;44.40;25.17;;;15.20;99.90;;;;;;5086366;28;20550;-74
2022/11/10 09:13:11;;;;;;;44.93;26.30;;;15.40;99.90;;;;;;5089480;28;20882;-74
2022/11/10 09:15:37;;;;;;;41.90;24.53;;;15.60;99.90;;;;;;5109216;28;20552;-74
2022/11/10 09:18:05;;;;;;;48.57;25.70;;;15.70;99.90;;;;;;5102269;28;20466;-74
2022/11/10 09:20:33;;;;;;;50.33;28.73;;;15.80;99.90;;;;;;5084806;28;20562;-75
2022/11/10 09:23:16;;;;;;;46.77;27.83;;;15.80;99.90;;;;;;5098854;28;20424;-73
2022/11/10 09:25:47;;;;;;;41.87;26.13;;;15.70;99.90;;;;;;5100027;28;20486;-73
2022/11/10 09:28:14;;;;;;;48.53;27.03;;;15.70;99.90;;;;;;5077298;28;20820;-73
2022/11/10 09:30:41;;;;;;;53.47;29.37;;;15.60;99.90;;;;;;5083319;28;20509;-75
2022/11/10 09:33:07;;;;;;;50.80;28.37;;;15.60;99.90;;;;;;5103745;28;20475;-74
2022/11/10 09:35:32;;;;;;;54.50;29.40;;;15.50;99.90;;;;;;5087133;28;20455;-75
2022/11/10 09:37:58;;;;;;;52.37;29.73;;;15.50;99.90;;;;;;5083732;28;20427;-73
2022/11/10 09:41:01;;;;;;;50.20;29.97;;;15.40;99.90;;;;;;5102808;28;20204;-73
2022/11/10 09:43:39;;;;;;;54.13;30.83;;;15.40;99.90;;;;;;5074403;28;20178;-73
2022/11/10 09:46:22;;;;;;;47.93;29.77;;;15.30;99.90;;;;;;5083429;28;20488;-75
2022/11/10 09:48:55;;;;;;;57.67;30.40;;;15.30;99.90;;;;;;5096064;28;20505;-73
2022/11/10 09:51:25;;;;;;;53.93;31.67;;;15.20;99.90;;;;;;5081801;28;20556;-73
2022/11/10 09:54:18;;;;;;;47.00;28.17;;;15.10;99.90;;;;;;5084905;28;21027;-73
2022/11/10 09:56:44;;;;;;;55.33;31.37;;;15.10;99.90;;;;;;5096762;28;20481;-73
2022/11/10 09:59:23;;;;;;;44.43;27.87;;;15.10;99.90;;;;;;5099017;28;20872;-73
2022/11/10 10:01:59;;;;;;;40.77;23.60;;;15.00;99.90;;;;;;5081656;28;20172;-74
2022/11/10 10:04:24;;;;;;;45.77;26.30;;;14.90;99.90;;;;;;5100830;28;20440;-73
2022/11/10 10:07:19;;;;;;;43.07;24.43;;;14.90;99.90;;;;;;5090052;27;20470;-74
2022/11/10 10:10:25;;;;;;;37.27;21.83;;;14.80;99.90;;;;;;5080869;28;20338;-74
2022/11/10 10:13:19;;;;;;;38.70;21.67;;;14.80;99.90;;;;;;5075469;28;21111;-73
2022/11/10 10:16:07;;;;;;;38.07;20.80;;;14.70;99.90;;;;;;5098056;28;20512;-73
2022/11/10 10:19:00;;;;;;;48.83;25.90;;;14.70;99.90;;;;;;5077247;28;20544;-75
2022/11/10 10:22:23;;;;;;;44.43;23.97;;;14.60;99.90;;;;;;5087221;28;20443;-73
2022/11/10 10:24:52;;;;;;;48.20;24.97;;;14.60;99.90;;;;;;5029670;28;20515;-73
2022/11/10 10:27:24;;;;;;;39.83;21.97;;;14.50;99.90;;;;;;5027490;28;20799;-72
2022/11/10 10:29:51;;;;;;;39.63;23.33;;;14.50;99.90;;;;;;5082555;28;20428;-73
2022/11/10 10:32:18;;;;;;;36.80;19.63;;;14.40;99.90;;;;;;5111866;28;20464;-73
2022/11/10 10:34:45;;;;;;;32.53;18.50;;;14.40;99.90;;;;;;5109203;28;20810;-74
2022/11/10 10:37:38;;;;;;;28.03;17.40;;;14.40;99.90;;;;;;5077401;28;20428;-73
2022/11/10 10:40:04;;;;;;;36.43;19.97;;;14.30;99.90;;;;;;5103566;28;20455;-74
2022/11/10 10:42:31;;;;;;;35.73;19.93;;;14.30;99.90;;;;;;5104762;28;20435;-73
2022/11/10 10:45:16;;;;;;;39.03;21.33;;;14.30;99.90;;;;;;5104998;28;20443;-73
2022/11/10 10:47:42;;;;;;;39.33;20.33;;;14.30;99.90;;;;;;5087475;28;20443;-72
2022/11/10 10:50:25;;;;;;;34.17;18.87;;;14.30;99.90;;;;;;5078955;28;20483;-71
2022/11/10 10:53:12;;;;;;;36.50;21.20;;;14.30;99.90;;;;;;5084067;28;20467;-73
2022/11/10 10:55:51;;;;;;;35.83;19.20;;;14.30;99.90;;;;;;5091153;28;20467;-74
2022/11/10 10:58:19;;;;;;;39.60;20.00;;;14.30;99.90;;;;;;5101537;28;20464;-73
2022/11/10 11:00:47;;;;;;;36.63;19.17;;;14.30;99.90;;;;;;5089204;28;20468;-73
2022/11/10 11:03:23;;;;;;;41.50;21.90;;;14.30;99.90;;;;;;5102309;28;20431;-74
2022/11/10 11:06:19;;;;;;;40.20;21.03;;;14.20;99.90;;;;;;5077381;28;20547;-73
2022/11/10 11:09:22;;;;;;;37.03;21.47;;;14.20;99.90;;;;;;5098992;28;20436;-74
2022/11/10 11:12:00;;;;;;;47.43;22.73;;;14.20;99.90;;;;;;5082994;28;20552;-73
2022/11/10 11:14:28;;;;;;;42.50;23.17;;;14.20;99.90;;;;;;5107215;28;20441;-74
2022/11/10 11:17:03;;;;;;;46.73;28.00;;;14.20;99.90;;;;;;5097723;28;20432;-74
2022/11/10 11:19:36;;;;;;;55.67;25.73;;;14.20;99.90;;;;;;5108336;28;20427;-73
2022/11/10 11:22:25;;;;;;;49.90;24.77;;;14.20;99.90;;;;;;5107170;28;20432;-72
2022/11/10 11:24:57;;;;;;;35.60;21.23;;;14.10;99.90;;;;;;5102685;28;20936;-73
2022/11/10 11:27:46;;;;;;;40.10;19.90;;;14.10;99.90;;;;;;5087375;28;20420;-73
2022/11/10 11:30:23;;;;;;;41.37;22.80;;;14.10;99.90;;;;;;5095074;28;20452;-73
2022/11/10 11:33:36;;;;;;;43.07;22.03;;;14.10;99.90;;;;;;5108601;28;20460;-73
2022/11/10 11:36:27;;;;;;;43.70;26.33;;;14.10;99.90;;;;;;5072533;28;20507;-72
2022/11/10 11:39:30;;;;;;;47.60;24.23;;;14.10;99.90;;;;;;5098466;28;20436;-74
2022/11/10 11:42:23;;;;;;;43.30;25.63;;;14.00;99.90;;;;;;5035749;28;20855;-72
2022/11/10 11:45:14;;;;;;;41.63;24.17;;;14.00;99.90;;;;;;5084091;28;20987;-73
2022/11/10 11:48:14;;;;;;;38.93;21.80;;;14.00;99.90;;;;;;5090807;28;20431;-73
2022/11/10 11:50:56;;;;;;;42.43;22.87;;;14.00;99.90;;;;;;5093959;28;20971;-74
2022/11/10 11:53:33;;;;;;;37.50;22.03;;;14.00;99.90;;;;;;5105297;28;20475;-74
2022/11/10 11:56:18;;;;;;;32.33;17.30;;;13.90;99.90;;;;;;5092348;28;20520;-74
2022/11/10 11:59:02;;;;;;;34.70;19.37;;;13.90;99.90;;;;;;5109735;28;20448;-75
2022/11/10 12:01:42;;;;;;;30.10;16.33;;;13.90;99.90;;;;;;5108689;28;20974;-73
2022/11/10 12:04:33;;;;;;;32.00;16.63;;;13.80;99.90;;;;;;5106317;28;20438;-73
2022/11/10 12:07:02;;;;;;;32.83;16.93;;;13.80;99.90;;;;;;5109869;28;20485;-74
2022/11/10 12:09:49;;;;;;;33.90;18.90;;;13.80;99.90;;;;;;5089995;28;20796;-73
2022/11/10 12:12:54;;;;;;;35.43;21.83;;;13.80;99.90;;;;;;5106511;28;20473;-72
2022/11/10 12:15:28;;;;;;;36.97;19.87;;;13.80;99.90;;;;;;5108451;28;20463;-73
2022/11/10 12:18:27;;;;;;;35.60;18.53;;;13.80;99.90;;;;;;5104171;28;20485;-74
2022/11/10 12:20:58;;;;;;;30.63;18.60;;;13.90;99.90;;;;;;5095769;28;20543;-73
2022/11/10 12:23:47;;;;;;;32.80;17.93;;;13.90;99.90;;;;;;5094333;28;20456;-74
2022/11/10 12:26:22;;;;;;;30.87;19.27;;;13.90;99.90;;;;;;5107634;28;20486;-74
2022/11/10 12:29:17;;;;;;;29.43;19.00;;;13.90;99.90;;;;;;5108342;28;20542;-73
2022/11/10 12:31:46;;;;;;;31.47;19.70;;;13.90;99.90;;;;;;5106483;28;20479;-72
2022/11/10 12:34:42;;;;;;;36.73;20.57;;;13.90;99.90;;;;;;5110286;28;20469;-73
2022/11/10 12:37:18;;;;;;;36.83;19.60;;;14.00;99.90;;;;;;5095093;28;20463;-72
2022/11/10 12:39:56;;;;;;;33.20;19.10;;;14.00;99.90;;;;;;5090238;28;20440;-72
2022/11/10 12:42:25;;;;;;;31.70;18.73;;;14.00;99.90;;;;;;5092143;28;20423;-73
2022/11/10 12:45:06;;;;;;;33.60;19.57;;;14.00;99.90;;;;;;5093768;28;20458;-72
2022/11/10 12:47:41;;;;;;;32.10;19.23;;;14.00;99.90;;;;;;5087880;28;20420;-72
2022/11/10 12:50:23;;;;;;;38.60;19.70;;;14.10;99.90;;;;;;5094571;28;20849;-73
2022/11/10 12:52:55;;;;;;;33.70;18.60;;;14.10;99.90;;;;;;5111621;28;20879;-73